Time;durP1;ratioP1;P1;durP2;ratioP2;P2;SDS_P1;SDS_P2;PMS_P1;PMS_P2;Temp;Humidity;BMP_temperature;BMP_pressure;BME280_temperature;BME280_humidity;BME280_pressure;Samples;Min_cycle;Max_cycle;Signal;HPM_P1;HPM_P2
2023/09/18 00:00:50;;;;;;;10.15;7.63;;;;;;;;;;5086711;28;20119;-63
2023/09/18 00:03:19;;;;;;;9.90;7.82;;;;;;;;;;5098361;28;20044;-62
2023/09/18 00:05:49;;;;;;;11.80;6.93;;;;;;;;;;5090710;28;20051;-63
2023/09/18 00:08:15;;;;;;;10.18;7.53;;;;;;;;;;5071147;28;20384;-64
2023/09/18 00:10:42;;;;;;;9.05;7.38;;;;;;;;;;5090854;28;20055;-62
2023/09/18 00:13:09;;;;;;;9.38;7.57;;;;;;;;;;5087890;28;20096;-64
2023/09/18 00:15:36;;;;;;;8.88;7.40;;;;;;;;;;5090446;28;20119;-63
2023/09/18 00:18:03;;;;;;;9.02;7.00;;;;;;;;;;5090472;28;20071;-63
2023/09/18 00:20:29;;;;;;;9.35;7.18;;;;;;;;;;5088347;28;20048;-61
2023/09/18 00:22:56;;;;;;;9.82;7.75;;;;;;;;;;5091021;28;20100;-62
2023/09/18 00:25:22;;;;;;;14.00;7.70;;;;;;;;;;5090815;28;20048;-61
2023/09/18 00:27:49;;;;;;;12.88;7.47;;;;;;;;;;5090545;28;20664;-61
2023/09/18 00:30:15;;;;;;;9.35;7.47;;;;;;;;;;5090755;28;20452;-61
2023/09/18 00:32:42;;;;;;;13.35;7.50;;;;;;;;;;5091185;28;20139;-61
2023/09/18 00:35:08;;;;;;;11.93;8.05;;;;;;;;;;5091472;28;20487;-61
2023/09/18 00:37:37;;;;;;;10.90;9.23;;;;;;;;;;5090866;28;20047;-61
2023/09/18 00:40:04;;;;;;;11.85;7.70;;;;;;;;;;5090401;28;20040;-61
2023/09/18 00:42:32;;;;;;;12.95;7.65;;;;;;;;;;5090961;28;20433;-61
2023/09/18 00:44:58;;;;;;;15.52;7.95;;;;;;;;;;5089607;28;20139;-61
2023/09/18 00:47:25;;;;;;;10.75;8.73;;;;;;;;;;5090860;28;20079;-60
2023/09/18 00:49:52;;;;;;;9.55;7.93;;;;;;;;;;5090463;28;20044;-61
2023/09/18 00:52:19;;;;;;;11.38;8.63;;;;;;;;;;5090876;28;20079;-61
2023/09/18 00:54:46;;;;;;;12.43;7.80;;;;;;;;;;5090498;28;20465;-63
2023/09/18 00:57:13;;;;;;;10.15;7.95;;;;;;;;;;5090848;28;20492;-61
2023/09/18 00:59:40;;;;;;;9.98;7.97;;;;;;;;;;5089665;28;20054;-61
2023/09/18 01:02:07;;;;;;;13.30;7.93;;;;;;;;;;5090694;28;20459;-61
2023/09/18 01:04:33;;;;;;;8.52;7.35;;;;;;;;;;5090159;28;20051;-61
2023/09/18 01:07:03;;;;;;;11.27;8.18;;;;;;;;;;5090512;28;20389;-61
2023/09/18 01:09:30;;;;;;;15.85;9.02;;;;;;;;;;5089765;28;20044;-61
2023/09/18 01:11:57;;;;;;;10.18;8.02;;;;;;;;;;5090194;28;20584;-61
2023/09/18 01:14:26;;;;;;;9.32;8.00;;;;;;;;;;5089800;28;20137;-60
2023/09/18 01:16:58;;;;;;;10.70;7.35;;;;;;;;;;5089910;28;20052;-61
2023/09/18 01:19:39;;;;;;;10.57;7.70;;;;;;;;;;5090101;28;20054;-63
2023/09/18 01:22:06;;;;;;;11.30;7.45;;;;;;;;;;5089974;28;20504;-61
2023/09/18 01:24:33;;;;;;;10.38;7.40;;;;;;;;;;5089744;28;20040;-61
2023/09/18 01:27:00;;;;;;;11.65;8.68;;;;;;;;;;5089555;28;20076;-60
2023/09/18 01:29:26;;;;;;;10.85;7.78;;;;;;;;;;5089641;28;20032;-62
2023/09/18 01:31:53;;;;;;;9.93;7.80;;;;;;;;;;5089537;28;20420;-61
2023/09/18 01:34:21;;;;;;;8.68;7.45;;;;;;;;;;5089561;28;20105;-62
2023/09/18 01:36:49;;;;;;;11.18;7.63;;;;;;;;;;5089676;28;20278;-61
2023/09/18 01:39:16;;;;;;;9.73;8.18;;;;;;;;;;5089124;28;20115;-61
2023/09/18 01:41:43;;;;;;;10.60;9.10;;;;;;;;;;5089233;28;20161;-61
2023/09/18 01:44:09;;;;;;;11.90;8.52;;;;;;;;;;5089979;28;20178;-62
2023/09/18 01:46:36;;;;;;;10.55;8.43;;;;;;;;;;5089703;28;20055;-61
2023/09/18 01:49:03;;;;;;;11.00;8.57;;;;;;;;;;5089570;28;20032;-61
2023/09/18 01:51:30;;;;;;;15.43;8.27;;;;;;;;;;5089690;28;20040;-61
2023/09/18 01:53:56;;;;;;;10.75;8.07;;;;;;;;;;5089285;28;20035;-61
2023/09/18 01:56:23;;;;;;;11.68;8.45;;;;;;;;;;5088618;28;20058;-62
2023/09/18 01:58:50;;;;;;;18.23;8.93;;;;;;;;;;5089000;28;20541;-62
2023/09/18 02:01:17;;;;;;;14.07;8.27;;;;;;;;;;5088949;28;20393;-61
2023/09/18 02:03:45;;;;;;;12.20;8.23;;;;;;;;;;5088962;28;20387;-61
2023/09/18 02:06:32;;;;;;;11.63;7.90;;;;;;;;;;5089856;28;20040;-61
2023/09/18 02:09:00;;;;;;;10.93;7.72;;;;;;;;;;5088740;28;20039;-61
2023/09/18 02:11:27;;;;;;;12.40;8.45;;;;;;;;;;5089263;28;20150;-61
2023/09/18 02:13:53;;;;;;;10.43;8.15;;;;;;;;;;5088674;28;20063;-60
2023/09/18 02:16:23;;;;;;;9.85;8.23;;;;;;;;;;5089121;28;20048;-62
2023/09/18 02:18:50;;;;;;;12.07;8.30;;;;;;;;;;5088853;28;20144;-61
2023/09/18 02:21:20;;;;;;;11.10;7.95;;;;;;;;;;5089256;28;20044;-61
2023/09/18 02:23:50;;;;;;;11.05;8.65;;;;;;;;;;5088912;28;20484;-61
2023/09/18 02:26:17;;;;;;;13.13;8.75;;;;;;;;;;5088928;28;20046;-61
2023/09/18 02:28:44;;;;;;;11.60;8.98;;;;;;;;;;5089138;28;20032;-61
2023/09/18 02:31:10;;;;;;;11.20;8.45;;;;;;;;;;5088524;28;20484;-61
2023/09/18 02:33:40;;;;;;;10.57;9.13;;;;;;;;;;5088932;28;20478;-61
2023/09/18 02:36:07;;;;;;;9.60;8.23;;;;;;;;;;5088684;28;20481;-61
2023/09/18 02:38:33;;;;;;;15.75;8.45;;;;;;;;;;5088169;28;20039;-61
2023/09/18 02:41:00;;;;;;;12.55;9.35;;;;;;;;;;5088320;28;20048;-62
2023/09/18 02:43:26;;;;;;;14.88;8.98;;;;;;;;;;5088991;28;20047;-62
2023/09/18 02:45:53;;;;;;;11.38;9.40;;;;;;;;;;5089050;28;20119;-60
2023/09/18 02:48:19;;;;;;;13.88;9.35;;;;;;;;;;5088665;28;20051;-61
2023/09/18 02:50:46;;;;;;;9.13;7.65;;;;;;;;;;5088645;28;20060;-61
2023/09/18 02:53:20;;;;;;;12.30;7.95;;;;;;;;;;5088595;28;20126;-62
2023/09/18 02:55:47;;;;;;;11.88;8.98;;;;;;;;;;5089015;28;20044;-61
2023/09/18 02:58:13;;;;;;;9.70;8.05;;;;;;;;;;5088374;28;20127;-60
2023/09/18 03:00:43;;;;;;;11.63;9.95;;;;;;;;;;5088547;28;20123;-61
2023/09/18 03:03:10;;;;;;;10.52;7.97;;;;;;;;;;5088076;28;20480;-61
2023/09/18 03:05:37;;;;;;;11.52;8.73;;;;;;;;;;5089116;28;20044;-60
2023/09/18 03:08:03;;;;;;;14.82;9.13;;;;;;;;;;5091798;28;20101;-62
2023/09/18 03:10:34;;;;;;;14.57;9.32;;;;;;;;;;5092409;28;20052;-62
2023/09/18 03:13:01;;;;;;;10.65;8.70;;;;;;;;;;5092298;28;20138;-61
2023/09/18 03:15:27;;;;;;;12.32;8.43;;;;;;;;;;5092408;28;20040;-62
2023/09/18 03:17:54;;;;;;;13.75;8.88;;;;;;;;;;5092534;28;20090;-60
2023/09/18 03:20:27;;;;;;;10.60;8.30;;;;;;;;;;5092488;28;20089;-61
2023/09/18 03:22:54;;;;;;;11.45;9.00;;;;;;;;;;5092735;28;20123;-62
2023/09/18 03:25:21;;;;;;;13.85;8.75;;;;;;;;;;5092518;28;20039;-61
2023/09/18 03:27:47;;;;;;;12.10;9.57;;;;;;;;;;5092283;28;20138;-61
2023/09/18 03:30:17;;;;;;;13.65;8.57;;;;;;;;;;5091725;28;20469;-61
2023/09/18 03:32:43;;;;;;;16.20;9.75;;;;;;;;;;5092316;28;20072;-61
2023/09/18 03:35:17;;;;;;;11.40;9.13;;;;;;;;;;5091650;28;20036;-62
2023/09/18 03:37:44;;;;;;;10.25;8.75;;;;;;;;;;5092192;28;20044;-60
2023/09/18 03:40:10;;;;;;;13.68;9.38;;;;;;;;;;5091426;28;20038;-62
2023/09/18 03:42:37;;;;;;;15.00;9.40;;;;;;;;;;5092363;28;20071;-61
2023/09/18 03:45:07;;;;;;;15.00;10.27;;;;;;;;;;5091624;28;20468;-62
2023/09/18 03:47:35;;;;;;;13.73;9.75;;;;;;;;;;5092044;28;20043;-61
2023/09/18 03:50:02;;;;;;;11.50;9.63;;;;;;;;;;5091639;28;20495;-61
2023/09/18 03:52:29;;;;;;;12.20;9.55;;;;;;;;;;5091983;28;20043;-60
2023/09/18 03:54:55;;;;;;;13.88;9.30;;;;;;;;;;5091381;28;20541;-61
2023/09/18 03:57:21;;;;;;;13.82;9.25;;;;;;;;;;5091817;28;20559;-61
2023/09/18 03:59:48;;;;;;;11.88;9.65;;;;;;;;;;5091112;28;20524;-60
2023/09/18 04:02:14;;;;;;;13.23;9.52;;;;;;;;;;5090433;28;20127;-61
2023/09/18 04:04:41;;;;;;;12.35;8.98;;;;;;;;;;5091779;28;20043;-61
2023/09/18 04:07:08;;;;;;;12.82;9.75;;;;;;;;;;5091407;28;20127;-60
2023/09/18 04:09:34;;;;;;;13.20;9.68;;;;;;;;;;5092027;28;20164;-60
2023/09/18 04:12:01;;;;;;;14.10;9.52;;;;;;;;;;5091680;28;20044;-61
2023/09/18 04:14:28;;;;;;;12.20;9.60;;;;;;;;;;5091218;28;20044;-61
2023/09/18 04:16:55;;;;;;;13.48;10.38;;;;;;;;;;5091233;28;20040;-61
2023/09/18 04:19:21;;;;;;;15.88;10.13;;;;;;;;;;5089913;28;20469;-61
2023/09/18 04:21:48;;;;;;;12.85;10.15;;;;;;;;;;5091564;28;20048;-61
2023/09/18 04:24:14;;;;;;;12.32;9.98;;;;;;;;;;5090862;28;20040;-60
2023/09/18 04:26:41;;;;;;;15.10;9.98;;;;;;;;;;5091157;28;20086;-61
2023/09/18 04:29:08;;;;;;;12.88;9.35;;;;;;;;;;5090881;28;20032;-61
2023/09/18 04:31:35;;;;;;;12.32;8.43;;;;;;;;;;5091077;28;20036;-61
2023/09/18 04:34:02;;;;;;;14.02;10.13;;;;;;;;;;5090505;28;20535;-62
2023/09/18 04:36:29;;;;;;;11.98;10.18;;;;;;;;;;5091187;28;20043;-61
2023/09/18 04:38:56;;;;;;;13.30;9.80;;;;;;;;;;5090459;28;20573;-61
2023/09/18 04:41:22;;;;;;;12.80;9.27;;;;;;;;;;5090968;28;20131;-61
2023/09/18 04:43:48;;;;;;;12.32;9.75;;;;;;;;;;5090394;28;20040;-61
2023/09/18 04:46:15;;;;;;;13.20;10.10;;;;;;;;;;5090800;28;20660;-61
2023/09/18 04:48:41;;;;;;;12.80;10.10;;;;;;;;;;5090191;28;20042;-61
2023/09/18 04:51:08;;;;;;;13.50;9.38;;;;;;;;;;5090532;28;20452;-60
2023/09/18 04:53:34;;;;;;;13.80;10.30;;;;;;;;;;5090612;28;20142;-60
2023/09/18 04:56:01;;;;;;;16.52;10.15;;;;;;;;;;5090865;28;20040;-61
2023/09/18 04:58:27;;;;;;;13.20;9.98;;;;;;;;;;5090173;28;20518;-61
2023/09/18 05:00:55;;;;;;;20.55;10.82;;;;;;;;;;5090651;28;20123;-61
2023/09/18 05:03:21;;;;;;;13.15;10.52;;;;;;;;;;5090201;28;20047;-60
2023/09/18 05:05:48;;;;;;;14.80;10.05;;;;;;;;;;5090794;28;20400;-61
2023/09/18 05:08:15;;;;;;;16.13;9.93;;;;;;;;;;5089850;28;20040;-61
2023/09/18 05:10:42;;;;;;;11.52;9.93;;;;;;;;;;5090465;28;20043;-60
2023/09/18 05:13:09;;;;;;;16.45;10.07;;;;;;;;;;5090091;28;20044;-61
2023/09/18 05:15:35;;;;;;;13.73;9.82;;;;;;;;;;5090158;28;20214;-61
2023/09/18 05:18:03;;;;;;;14.95;9.82;;;;;;;;;;5089740;28;20040;-62
2023/09/18 05:20:31;;;;;;;12.50;9.50;;;;;;;;;;5089623;28;20040;-64
2023/09/18 05:22:58;;;;;;;15.77;10.00;;;;;;;;;;5090188;28;20048;-63
2023/09/18 05:25:25;;;;;;;21.85;11.13;;;;;;;;;;5089738;28;20044;-63
2023/09/18 05:27:55;;;;;;;18.13;9.52;;;;;;;;;;5089847;28;20044;-62
2023/09/18 05:30:30;;;;;;;17.08;10.70;;;;;;;;;;5089482;28;20036;-60
2023/09/18 05:32:57;;;;;;;12.68;10.77;;;;;;;;;;5089788;28;20046;-61
2023/09/18 05:35:24;;;;;;;11.77;9.05;;;;;;;;;;5088329;28;20083;-61
2023/09/18 05:37:51;;;;;;;15.30;8.93;;;;;;;;;;5090007;28;20258;-61
2023/09/18 05:40:18;;;;;;;16.15;9.60;;;;;;;;;;5089557;28;20132;-63
2023/09/18 05:42:45;;;;;;;16.13;9.55;;;;;;;;;;5089811;28;20152;-63
2023/09/18 05:45:12;;;;;;;15.10;8.88;;;;;;;;;;5089509;28;20467;-62
2023/09/18 05:47:39;;;;;;;13.98;9.48;;;;;;;;;;5089614;28;20421;-64
2023/09/18 05:50:06;;;;;;;18.67;9.45;;;;;;;;;;5089342;28;20101;-62
2023/09/18 05:52:33;;;;;;;11.82;9.15;;;;;;;;;;5088986;28;20105;-61
2023/09/18 05:55:00;;;;;;;12.85;9.25;;;;;;;;;;5089464;28;20131;-60
2023/09/18 05:57:30;;;;;;;10.32;8.80;;;;;;;;;;5089525;28;20047;-61
2023/09/18 05:59:57;;;;;;;13.45;9.25;;;;;;;;;;5088898;28;20051;-61
2023/09/18 06:02:24;;;;;;;13.65;9.15;;;;;;;;;;5089187;28;20058;-61
2023/09/18 06:04:56;;;;;;;13.23;8.93;;;;;;;;;;5089046;28;20048;-60
2023/09/18 06:07:22;;;;;;;12.43;8.95;;;;;;;;;;5089496;28;20128;-60
2023/09/18 06:09:51;;;;;;;12.05;8.75;;;;;;;;;;5089108;28;20082;-61
2023/09/18 06:12:17;;;;;;;10.43;8.52;;;;;;;;;;5088690;28;20040;-63
2023/09/18 06:14:44;;;;;;;22.00;8.70;;;;;;;;;;5088392;28;20068;-63
2023/09/18 06:17:11;;;;;;;14.10;8.82;;;;;;;;;;5089323;28;20044;-60
2023/09/18 06:19:39;;;;;;;11.65;8.02;;;;;;;;;;5088936;28;20044;-63
2023/09/18 06:22:07;;;;;;;12.63;6.95;;;;;;;;;;5088943;28;20075;-65
2023/09/18 06:24:37;;;;;;;11.88;8.50;;;;;;;;;;5088721;28;20044;-66
2023/09/18 06:27:06;;;;;;;14.77;8.50;;;;;;;;;;5089456;28;20071;-67
2023/09/18 06:29:32;;;;;;;11.20;7.85;;;;;;;;;;5089035;28;20043;-66
2023/09/18 06:31:59;;;;;;;13.05;8.10;;;;;;;;;;5089601;28;20079;-65
2023/09/18 06:34:26;;;;;;;13.38;9.32;;;;;;;;;;5088592;28;20585;-64
2023/09/18 06:36:52;;;;;;;10.90;8.32;;;;;;;;;;5088848;28;20543;-67
2023/09/18 06:39:20;;;;;;;9.90;7.82;;;;;;;;;;5088210;28;20536;-64
2023/09/18 06:41:46;;;;;;;12.02;8.88;;;;;;;;;;5089946;28;20036;-65
2023/09/18 06:44:13;;;;;;;10.25;7.53;;;;;;;;;;5091564;28;20068;-66
2023/09/18 06:46:40;;;;;;;17.65;8.73;;;;;;;;;;5090461;28;20043;-65
2023/09/18 06:49:07;;;;;;;10.50;7.47;;;;;;;;;;5094475;28;20046;-66
2023/09/18 06:51:33;;;;;;;11.43;8.05;;;;;;;;;;5092911;28;20052;-65
2023/09/18 06:54:08;;;;;;;12.95;7.68;;;;;;;;;;5103867;28;20040;-66
2023/09/18 06:56:35;;;;;;;11.80;7.20;;;;;;;;;;5095850;28;20503;-67
2023/09/18 06:59:02;;;;;;;11.48;6.88;;;;;;;;;;5093728;28;20047;-68
2023/09/18 07:01:28;;;;;;;11.95;7.00;;;;;;;;;;5095549;28;20078;-66
2023/09/18 07:03:56;;;;;;;11.95;7.40;;;;;;;;;;5102475;28;20051;-66
2023/09/18 07:06:22;;;;;;;9.68;7.55;;;;;;;;;;5096450;28;20036;-64
2023/09/18 07:08:49;;;;;;;7.68;6.88;;;;;;;;;;5096475;28;20044;-65
2023/09/18 07:11:17;;;;;;;11.35;6.50;;;;;;;;;;5103486;28;20047;-68
2023/09/18 07:13:43;;;;;;;10.25;6.85;;;;;;;;;;5096472;28;20075;-66
2023/09/18 07:16:10;;;;;;;9.00;6.82;;;;;;;;;;5095455;28;20717;-66
2023/09/18 07:18:37;;;;;;;20.48;6.63;;;;;;;;;;5105702;28;20040;-66
2023/09/18 07:21:03;;;;;;;10.45;6.75;;;;;;;;;;5101938;28;20127;-64
2023/09/18 07:23:30;;;;;;;9.93;6.78;;;;;;;;;;5097833;28;20132;-64
2023/09/18 07:25:59;;;;;;;8.10;6.63;;;;;;;;;;5098966;28;20043;-65
2023/09/18 07:28:26;;;;;;;8.75;6.72;;;;;;;;;;5105314;27;20087;-65
2023/09/18 07:30:52;;;;;;;8.48;6.43;;;;;;;;;;5098906;28;20039;-67
2023/09/18 07:33:19;;;;;;;12.35;6.18;;;;;;;;;;5098861;28;20453;-65
2023/09/18 07:35:51;;;;;;;8.02;5.85;;;;;;;;;;5097902;28;20119;-67
2023/09/18 07:38:21;;;;;;;10.43;6.30;;;;;;;;;;5092337;28;20135;-67
2023/09/18 07:40:48;;;;;;;7.95;6.80;;;;;;;;;;5099241;28;20127;-65
2023/09/18 07:43:14;;;;;;;11.07;7.00;;;;;;;;;;5105656;28;20130;-65
2023/09/18 07:45:40;;;;;;;11.05;6.07;;;;;;;;;;5097298;28;20044;-64
2023/09/18 07:48:07;;;;;;;8.55;6.32;;;;;;;;;;5092879;28;20409;-65
2023/09/18 07:50:34;;;;;;;6.63;5.57;;;;;;;;;;5095973;28;20052;-66
2023/09/18 07:53:01;;;;;;;8.18;5.55;;;;;;;;;;5100932;28;20050;-65
2023/09/18 07:55:29;;;;;;;10.90;6.13;;;;;;;;;;5097190;28;20468;-67
2023/09/18 07:57:55;;;;;;;6.88;5.65;;;;;;;;;;5107104;28;20078;-66
2023/09/18 08:00:22;;;;;;;5.90;5.28;;;;;;;;;;5095280;28;20739;-66
2023/09/18 08:02:50;;;;;;;6.90;5.53;;;;;;;;;;5099728;28;20044;-66
2023/09/18 08:05:17;;;;;;;8.32;6.00;;;;;;;;;;5092996;28;20052;-65
2023/09/18 08:07:43;;;;;;;6.95;5.63;;;;;;;;;;5106754;28;20070;-65
2023/09/18 08:10:10;;;;;;;9.38;5.45;;;;;;;;;;5093163;28;20522;-65
2023/09/18 08:12:37;;;;;;;9.40;6.10;;;;;;;;;;5104777;28;20136;-66
2023/09/18 08:15:05;;;;;;;7.80;5.72;;;;;;;;;;5094541;28;20047;-65
2023/09/18 08:17:31;;;;;;;8.23;5.20;;;;;;;;;;5104851;28;20499;-64
2023/09/18 08:19:58;;;;;;;8.80;5.65;;;;;;;;;;5094950;28;20154;-64
2023/09/18 08:22:24;;;;;;;11.88;4.72;;;;;;;;;;5106096;28;20047;-67
2023/09/18 08:24:52;;;;;;;8.07;4.57;;;;;;;;;;5090830;28;20090;-64
2023/09/18 08:27:19;;;;;;;6.15;4.85;;;;;;;;;;5098100;28;20043;-65
2023/09/18 08:29:46;;;;;;;6.07;5.47;;;;;;;;;;5091763;28;20135;-66
2023/09/18 08:32:13;;;;;;;10.15;6.78;;;;;;;;;;5105261;28;20062;-65
2023/09/18 08:34:39;;;;;;;10.48;5.68;;;;;;;;;;5102882;28;20043;-64
2023/09/18 08:37:06;;;;;;;7.82;5.72;;;;;;;;;;5083405;28;20050;-65
2023/09/18 08:39:33;;;;;;;8.30;5.72;;;;;;;;;;5091697;28;20074;-65
2023/09/18 08:42:03;;;;;;;6.93;5.47;;;;;;;;;;5094408;28;20072;-67
2023/09/18 08:44:30;;;;;;;7.78;6.25;;;;;;;;;;5102534;28;20140;-67
2023/09/18 08:46:57;;;;;;;6.72;5.72;;;;;;;;;;5100219;28;20036;-67
2023/09/18 08:49:24;;;;;;;9.57;6.15;;;;;;;;;;5097716;28;20048;-68
2023/09/18 08:51:51;;;;;;;7.05;5.78;;;;;;;;;;5106253;28;20126;-66
2023/09/18 08:54:17;;;;;;;7.80;5.63;;;;;;;;;;5085802;28;20532;-66
2023/09/18 08:56:44;;;;;;;6.80;5.88;;;;;;;;;;5097399;28;20187;-65
2023/09/18 08:59:11;;;;;;;11.52;5.97;;;;;;;;;;5094389;28;20124;-66
2023/09/18 09:01:38;;;;;;;12.00;6.53;;;;;;;;;;5104469;28;20122;-65
2023/09/18 09:04:05;;;;;;;10.90;5.88;;;;;;;;;;5091915;28;20088;-66
2023/09/18 09:06:31;;;;;;;7.88;5.72;;;;;;;;;;5099695;28;20112;-68
2023/09/18 09:08:59;;;;;;;8.45;5.57;;;;;;;;;;5090127;28;20036;-65
2023/09/18 09:11:25;;;;;;;9.60;5.72;;;;;;;;;;5102229;28;20123;-66
2023/09/18 09:14:22;;;;;;;8.63;6.10;;;;;;;;;;5089484;28;20055;-66
2023/09/18 09:16:50;;;;;;;7.72;5.68;;;;;;;;;;5088816;28;20032;-66
2023/09/18 09:19:18;;;;;;;7.53;5.45;;;;;;;;;;5090286;28;20043;-68
2023/09/18 09:21:46;;;;;;;10.45;5.60;;;;;;;;;;5096653;28;20040;-68
2023/09/18 09:24:13;;;;;;;10.23;6.32;;;;;;;;;;5101950;28;20083;-69
2023/09/18 09:26:40;;;;;;;10.10;5.07;;;;;;;;;;5091620;28;20082;-66
2023/09/18 09:29:24;;;;;;;7.68;5.38;;;;;;;;;;5090408;28;20554;-64
2023/09/18 09:31:51;;;;;;;8.43;5.53;;;;;;;;;;5090665;28;20075;-66
2023/09/18 09:34:30;;;;;;;7.13;4.57;;;;;;;;;;5082880;28;20124;-67
2023/09/18 09:36:57;;;;;;;7.25;4.53;;;;;;;;;;5098007;28;20093;-64
2023/09/18 09:39:25;;;;;;;7.78;4.45;;;;;;;;;;5096230;28;20060;-65
2023/09/18 09:41:52;;;;;;;5.18;4.32;;;;;;;;;;5105112;28;20083;-65
2023/09/18 09:44:20;;;;;;;7.13;4.05;;;;;;;;;;5080021;28;20074;-66
2023/09/18 09:46:48;;;;;;;5.95;4.30;;;;;;;;;;5096825;28;20112;-65
2023/09/18 09:49:19;;;;;;;7.43;4.22;;;;;;;;;;5096648;28;20545;-66
2023/09/18 09:51:46;;;;;;;8.32;4.78;;;;;;;;;;5098822;28;20044;-67
2023/09/18 09:54:13;;;;;;;8.77;4.13;;;;;;;;;;5098194;28;20107;-65
2023/09/18 09:56:48;;;;;;;7.10;4.05;;;;;;;;;;5095135;28;20135;-66
2023/09/18 09:59:15;;;;;;;6.47;3.80;;;;;;;;;;5096476;28;20741;-67
2023/09/18 10:01:44;;;;;;;6.53;4.97;;;;;;;;;;5103434;28;20096;-64
2023/09/18 10:04:12;;;;;;;7.75;4.55;;;;;;;;;;5089623;28;20036;-65
2023/09/18 10:06:41;;;;;;;5.28;4.28;;;;;;;;;;5098548;28;20515;-65
2023/09/18 10:09:10;;;;;;;5.38;3.85;;;;;;;;;;5089908;28;20097;-68
2023/09/18 10:11:45;;;;;;;5.72;4.00;;;;;;;;;;5099165;28;20042;-66
2023/09/18 10:14:19;;;;;;;6.13;4.55;;;;;;;;;;5096832;28;20046;-64
2023/09/18 10:16:49;;;;;;;11.43;4.32;;;;;;;;;;5091060;28;20139;-67
2023/09/18 10:19:33;;;;;;;8.50;4.88;;;;;;;;;;5089641;28;20118;-67
2023/09/18 10:22:11;;;;;;;7.30;4.30;;;;;;;;;;5092112;28;20546;-64
2023/09/18 10:24:37;;;;;;;6.63;4.28;;;;;;;;;;5090975;28;20051;-65
2023/09/18 10:27:06;;;;;;;5.55;4.40;;;;;;;;;;5092333;28;20035;-65
2023/09/18 10:29:34;;;;;;;5.43;4.38;;;;;;;;;;5089662;28;20123;-64
2023/09/18 10:32:03;;;;;;;6.57;5.28;;;;;;;;;;5100108;28;20590;-66
2023/09/18 10:34:30;;;;;;;5.57;4.75;;;;;;;;;;5095210;28;20122;-67
2023/09/18 10:36:57;;;;;;;6.45;4.38;;;;;;;;;;5088018;28;20067;-67
2023/09/18 10:39:25;;;;;;;6.35;4.22;;;;;;;;;;5087759;28;20400;-67
2023/09/18 10:41:53;;;;;;;5.78;4.78;;;;;;;;;;5088433;28;20454;-67
2023/09/18 10:44:20;;;;;;;5.07;4.15;;;;;;;;;;5087590;28;20039;-67
2023/09/18 10:46:47;;;;;;;5.30;4.03;;;;;;;;;;5088231;28;20047;-66
2023/09/18 10:49:15;;;;;;;5.28;4.50;;;;;;;;;;5087316;28;20040;-67
2023/09/18 10:51:42;;;;;;;7.93;4.68;;;;;;;;;;5087688;28;20085;-70
2023/09/18 10:54:10;;;;;;;7.38;4.43;;;;;;;;;;5086381;28;20071;-70
2023/09/18 10:56:41;;;;;;;7.40;3.78;;;;;;;;;;5087828;28;20074;-73
2023/09/18 10:59:08;;;;;;;12.10;4.30;;;;;;;;;;5087732;28;20048;-67
2023/09/18 11:01:38;;;;;;;6.78;4.13;;;;;;;;;;5083422;28;20125;-69
2023/09/18 11:04:10;;;;;;;8.15;3.92;;;;;;;;;;5087836;28;20088;-68
2023/09/18 11:06:55;;;;;;;7.40;3.35;;;;;;;;;;5088038;28;20378;-67
2023/09/18 11:09:22;;;;;;;4.10;3.30;;;;;;;;;;5087752;28;20127;-67
2023/09/18 11:11:56;;;;;;;6.00;3.20;;;;;;;;;;5087744;28;20071;-66
2023/09/18 11:14:23;;;;;;;7.15;4.22;;;;;;;;;;5087969;28;20044;-66
2023/09/18 11:16:50;;;;;;;8.00;3.22;;;;;;;;;;5087793;28;20366;-67
2023/09/18 11:19:17;;;;;;;5.13;3.53;;;;;;;;;;5087690;28;20040;-65
2023/09/18 11:21:45;;;;;;;8.23;3.15;;;;;;;;;;5088338;28;20047;-68
2023/09/18 11:24:15;;;;;;;4.07;3.05;;;;;;;;;;5086330;28;20032;-67
2023/09/18 11:26:42;;;;;;;11.02;5.18;;;;;;;;;;5068096;28;20075;-67
2023/09/18 11:29:14;;;;;;;4.90;3.85;;;;;;;;;;5088095;28;20081;-68
2023/09/18 11:31:40;;;;;;;6.22;3.65;;;;;;;;;;5092016;28;20039;-66
2023/09/18 11:34:11;;;;;;;6.15;3.90;;;;;;;;;;5091036;28;20067;-66
2023/09/18 11:36:37;;;;;;;7.57;4.32;;;;;;;;;;5091972;28;20075;-67
2023/09/18 11:39:04;;;;;;;7.82;4.43;;;;;;;;;;5091289;28;20123;-67
2023/09/18 11:41:38;;;;;;;9.45;4.65;;;;;;;;;;5091708;28;20101;-67
2023/09/18 11:44:13;;;;;;;14.65;5.82;;;;;;;;;;5091240;28;20413;-65
2023/09/18 11:46:40;;;;;;;13.02;4.20;;;;;;;;;;5091714;28;20040;-67
2023/09/18 11:49:09;;;;;;;7.55;4.45;;;;;;;;;;5091534;28;20110;-64
2023/09/18 11:51:36;;;;;;;14.23;5.88;;;;;;;;;;5091611;28;20074;-65
2023/09/18 11:54:03;;;;;;;8.75;5.00;;;;;;;;;;5090967;28;20079;-64
2023/09/18 11:56:30;;;;;;;4.30;3.60;;;;;;;;;;5090850;28;20473;-65
2023/09/18 11:58:56;;;;;;;8.00;3.47;;;;;;;;;;5091272;28;20166;-64
2023/09/18 12:01:22;;;;;;;9.65;3.58;;;;;;;;;;5091598;28;20081;-66
2023/09/18 12:03:52;;;;;;;9.68;3.90;;;;;;;;;;5092224;28;20055;-65
2023/09/18 12:06:19;;;;;;;8.90;3.55;;;;;;;;;;5100074;28;20093;-64
2023/09/18 12:08:46;;;;;;;6.10;3.88;;;;;;;;;;5091316;28;20040;-64
2023/09/18 12:11:16;;;;;;;10.30;4.55;;;;;;;;;;5089415;28;20043;-65
2023/09/18 12:13:46;;;;;;;7.22;3.55;;;;;;;;;;5090500;28;20127;-65
2023/09/18 12:16:13;;;;;;;6.22;3.70;;;;;;;;;;5090408;28;20492;-65
2023/09/18 12:18:45;;;;;;;7.97;3.33;;;;;;;;;;5090365;28;20546;-64
2023/09/18 12:21:13;;;;;;;11.63;3.65;;;;;;;;;;5090038;28;20122;-65
2023/09/18 12:23:40;;;;;;;7.40;3.95;;;;;;;;;;5090308;28;20075;-64
2023/09/18 12:26:07;;;;;;;5.47;3.58;;;;;;;;;;5087306;28;20064;-66
2023/09/18 12:28:35;;;;;;;9.40;4.40;;;;;;;;;;5083676;28;20032;-65
2023/09/18 12:31:05;;;;;;;7.97;4.22;;;;;;;;;;5083477;28;20051;-64
2023/09/18 12:33:36;;;;;;;8.98;3.90;;;;;;;;;;5081925;28;20050;-63
2023/09/18 12:36:04;;;;;;;9.55;3.70;;;;;;;;;;5089568;28;20075;-62
2023/09/18 12:38:31;;;;;;;9.77;4.47;;;;;;;;;;5079325;28;20117;-61
2023/09/18 12:41:05;;;;;;;8.82;4.15;;;;;;;;;;5066731;28;20509;-64
2023/09/18 12:43:36;;;;;;;5.00;3.22;;;;;;;;;;5084036;28;20076;-62
2023/09/18 12:46:04;;;;;;;8.55;4.13;;;;;;;;;;5087727;28;20071;-64
2023/09/18 12:48:30;;;;;;;7.88;4.38;;;;;;;;;;5087772;28;20048;-65
2023/09/18 12:51:04;;;;;;;11.60;3.70;;;;;;;;;;5085461;28;20439;-64
2023/09/18 12:53:31;;;;;;;8.88;3.22;;;;;;;;;;5085909;28;20048;-64
2023/09/18 12:56:05;;;;;;;7.05;3.42;;;;;;;;;;5086644;28;20044;-64
2023/09/18 12:58:31;;;;;;;7.97;3.42;;;;;;;;;;5086681;28;20461;-63
2023/09/18 13:01:06;;;;;;;7.53;3.22;;;;;;;;;;5081973;28;20150;-64
2023/09/18 13:03:35;;;;;;;9.32;4.30;;;;;;;;;;5086291;28;20067;-67
2023/09/18 13:06:08;;;;;;;9.63;3.78;;;;;;;;;;5084762;28;20044;-65
2023/09/18 13:08:35;;;;;;;4.60;3.35;;;;;;;;;;5085331;28;20336;-65
2023/09/18 13:11:06;;;;;;;8.10;3.92;;;;;;;;;;5085548;28;20043;-66
2023/09/18 13:13:32;;;;;;;13.25;4.05;;;;;;;;;;5087398;28;20121;-66
2023/09/18 13:16:00;;;;;;;14.38;3.95;;;;;;;;;;5087038;28;20066;-67
2023/09/18 13:18:27;;;;;;;12.52;4.40;;;;;;;;;;5087357;28;20071;-62
2023/09/18 13:20:53;;;;;;;11.00;4.20;;;;;;;;;;5087647;28;20225;-62
2023/09/18 13:23:20;;;;;;;16.60;4.25;;;;;;;;;;5085582;28;20121;-63
2023/09/18 13:25:48;;;;;;;14.30;4.20;;;;;;;;;;5087324;28;20043;-63
2023/09/18 13:28:14;;;;;;;9.75;4.03;;;;;;;;;;5092873;28;20123;-62
2023/09/18 13:30:41;;;;;;;9.75;4.35;;;;;;;;;;5087690;28;20076;-61
2023/09/18 13:33:09;;;;;;;6.88;4.40;;;;;;;;;;5087219;28;20121;-62
2023/09/18 13:35:37;;;;;;;11.48;3.90;;;;;;;;;;5085951;28;20036;-62
2023/09/18 13:38:05;;;;;;;7.50;3.97;;;;;;;;;;5087615;28;20036;-62
2023/09/18 13:40:33;;;;;;;12.30;4.35;;;;;;;;;;5087738;28;20032;-62
2023/09/18 13:42:59;;;;;;;9.95;4.10;;;;;;;;;;5087595;28;20069;-63
2023/09/18 13:45:26;;;;;;;11.63;3.65;;;;;;;;;;5087870;28;20044;-62
2023/09/18 13:47:52;;;;;;;12.07;3.85;;;;;;;;;;5088024;28;20559;-63
2023/09/18 13:50:19;;;;;;;11.45;4.25;;;;;;;;;;5088076;28;20047;-62
2023/09/18 13:52:45;;;;;;;12.85;4.43;;;;;;;;;;5088529;28;20067;-63
2023/09/18 13:55:12;;;;;;;9.63;4.50;;;;;;;;;;5088025;28;20105;-62
2023/09/18 13:57:40;;;;;;;7.15;4.18;;;;;;;;;;5088304;28;20639;-62
2023/09/18 14:00:11;;;;;;;9.38;3.67;;;;;;;;;;5087890;28;20483;-61
2023/09/18 14:02:38;;;;;;;11.57;3.65;;;;;;;;;;5088192;28;20040;-62
2023/09/18 14:05:05;;;;;;;12.80;3.83;;;;;;;;;;5088327;28;20071;-64
2023/09/18 14:07:32;;;;;;;9.80;3.33;;;;;;;;;;5088238;28;20058;-61
2023/09/18 14:09:58;;;;;;;8.50;3.53;;;;;;;;;;5088545;28;20093;-62
2023/09/18 14:12:25;;;;;;;6.28;2.88;;;;;;;;;;5087839;28;20048;-63
2023/09/18 14:14:51;;;;;;;9.50;2.47;;;;;;;;;;5088024;28;20040;-62
2023/09/18 14:17:21;;;;;;;5.72;3.03;;;;;;;;;;5088052;28;20083;-64
2023/09/18 14:19:48;;;;;;;8.10;2.63;;;;;;;;;;5087962;28;20044;-64
2023/09/18 14:22:15;;;;;;;7.97;3.45;;;;;;;;;;5087627;28;20061;-63
2023/09/18 14:24:45;;;;;;;5.50;2.60;;;;;;;;;;5087720;28;20139;-63
2023/09/18 14:27:15;;;;;;;7.15;2.30;;;;;;;;;;5087377;28;20221;-62
2023/09/18 14:29:42;;;;;;;4.63;2.42;;;;;;;;;;5088031;28;20093;-64
2023/09/18 14:32:08;;;;;;;6.03;2.10;;;;;;;;;;5087692;28;20047;-62
2023/09/18 14:34:35;;;;;;;7.05;3.03;;;;;;;;;;5087623;28;20047;-63
2023/09/18 14:37:05;;;;;;;4.88;2.05;;;;;;;;;;5087690;28;20047;-62
2023/09/18 14:39:32;;;;;;;6.90;3.10;;;;;;;;;;5087870;28;20381;-64